Terminal Aerodrome Forecast
Issued by NWS

Home | Current Version | Previous Version | Text Only | Print | Product List | Glossary On
Versions: 1 2 3 4 5 6 7 8 9 10 11 12 13 14 15 16 17 18 19 20 21 22 23 24 25 26
386
FTUS43 KDVN 221456 AAA
TAFBRL
TAF AMD
KBRL 221456Z 2215/2312 20010KT 3/4SM BR OVC002
     FM221600 20009G16KT P6SM SKC
     FM230300 28008KT P6SM SKC=

USA.gov is the U.S. government's official web portal to all federal, state and local government web resources and services.